Time;durP1;ratioP1;P1;durP2;ratioP2;P2;SDS_P1;SDS_P2;PMS_P1;PMS_P2;Temp;Humidity;BMP_temperature;BMP_pressure;BME280_temperature;BME280_humidity;BME280_pressure;Samples;Min_cycle;Max_cycle;Signal;HPM_P1;HPM_P2
2024/03/14 00:00:05;;;;;;;;;;;11.90;33.60;;;;;;5055242;28;19936;-77
2024/03/14 00:02:31;;;;;;;;;;;11.80;33.80;;;;;;5056689;28;19913;-76
2024/03/14 00:05:14;;;;;;;;;;;11.90;34.30;;;;;;5056673;28;19913;-76
2024/03/14 00:08:14;;;;;;;;;;;11.80;34.80;;;;;;5056870;28;19956;-76
2024/03/14 00:10:40;;;;;;;;;;;11.80;34.10;;;;;;5056774;28;20024;-75
2024/03/14 00:13:05;;;;;;;;;;;11.80;33.60;;;;;;5056874;28;20408;-76
2024/03/14 00:15:31;;;;;;;;;;;11.80;33.20;;;;;;5038648;28;19909;-75
2024/03/14 00:18:04;;;;;;;;;;;11.80;30.90;;;;;;5056804;28;19912;-75
2024/03/14 00:20:31;;;;;;;;;;;11.70;36.30;;;;;;5055757;28;19970;-75
2024/03/14 00:22:58;;;;;;;;;;;11.70;41.10;;;;;;5036513;28;19916;-76
2024/03/14 00:25:31;;;;;;;;;;;11.70;37.30;;;;;;5031674;28;19913;-75
2024/03/14 00:27:58;;;;;;;;;;;11.60;32.10;;;;;;5051753;28;19920;-76
2024/03/14 00:30:43;;;;;;;;;;;11.60;40.10;;;;;;5056021;28;20011;-76
2024/03/14 00:33:25;;;;;;;;;;;11.50;43.50;;;;;;5055874;28;19920;-76
2024/03/14 00:36:10;;;;;;;;;;;11.60;43.30;;;;;;5039107;28;19913;-77
2024/03/14 00:38:36;;;;;;;;;;;11.60;43.30;;;;;;5055845;28;19909;-76
2024/03/14 00:41:25;;;;;;;;;;;11.60;43.30;;;;;;5056304;28;19936;-76
2024/03/14 00:43:51;;;;;;;;;;;11.60;35.10;;;;;;5055915;28;19908;-76
2024/03/14 00:46:17;;;;;;;;;;;11.50;29.10;;;;;;5049803;28;19915;-75
2024/03/14 00:48:42;;;;;;;;;;;11.40;37.60;;;;;;5054407;28;19913;-74
2024/03/14 00:51:14;;;;;;;;;;;11.50;30.70;;;;;;5038046;28;19912;-75
2024/03/14 00:53:39;;;;;;;;;;;11.50;34.70;;;;;;5054442;28;19974;-75
2024/03/14 00:56:05;;;;;;;;;;;11.50;36.40;;;;;;5051521;28;20381;-75
2024/03/14 00:58:31;;;;;;;;;;;11.50;36.60;;;;;;5055359;28;19921;-75
2024/03/14 01:00:57;;;;;;;;;;;11.50;34.30;;;;;;5055508;28;19912;-75
2024/03/14 01:03:23;;;;;;;;;;;11.50;27.60;;;;;;5055745;28;19909;-75
2024/03/14 01:05:57;;;;;;;;;;;11.50;30.70;;;;;;5054190;28;19920;-75
2024/03/14 01:08:26;;;;;;;;;;;11.50;29.50;;;;;;5055545;28;19979;-75
2024/03/14 01:10:52;;;;;;;;;;;11.50;28.10;;;;;;5034538;28;20420;-75
2024/03/14 01:13:31;;;;;;;;;;;11.50;23.80;;;;;;5055906;28;19952;-75
2024/03/14 01:16:02;;;;;;;;;;;11.50;25.30;;;;;;5055202;28;19909;-75
2024/03/14 01:18:28;;;;;;;;;;;11.40;25.30;;;;;;5055354;28;19939;-75
2024/03/14 01:20:53;;;;;;;;;;;11.40;24.80;;;;;;5055017;28;20446;-75
2024/03/14 01:23:31;;;;;;;;;;;11.30;23.40;;;;;;5055261;28;19920;-75
2024/03/14 01:26:13;;;;;;;;;;;11.20;25.90;;;;;;5055173;28;19942;-75
2024/03/14 01:28:39;;;;;;;;;;;11.20;27.10;;;;;;5055586;28;19909;-75
2024/03/14 01:31:08;;;;;;;;;;;11.10;27.00;;;;;;5055040;28;19932;-75
2024/03/14 01:33:37;;;;;;;;;;;11.10;25.40;;;;;;5054927;28;19912;-75
2024/03/14 01:36:04;;;;;;;;;;;11.10;24.80;;;;;;5054802;28;20011;-75
2024/03/14 01:38:30;;;;;;;;;;;11.00;26.60;;;;;;5054775;28;19912;-75
2024/03/14 01:40:56;;;;;;;;;;;10.90;27.70;;;;;;5054910;28;19912;-75
2024/03/14 01:43:31;;;;;;;;;;;10.90;25.40;;;;;;5034283;28;19909;-75
2024/03/14 01:45:58;;;;;;;;;;;10.80;25.20;;;;;;5042893;28;19942;-75
2024/03/14 01:48:23;;;;;;;;;;;10.80;26.50;;;;;;5050088;28;20364;-75
2024/03/14 01:50:49;;;;;;;;;;;10.80;25.90;;;;;;5054339;28;19913;-75
2024/03/14 01:53:20;;;;;;;;;;;10.70;25.40;;;;;;5054574;28;19912;-75
2024/03/14 01:55:46;;;;;;;;;;;10.70;25.30;;;;;;5054625;28;19913;-75
2024/03/14 01:58:12;;;;;;;;;;;10.70;24.30;;;;;;5054823;28;20407;-76
2024/03/14 02:00:50;;;;;;;;;;;10.60;23.70;;;;;;5054391;28;19917;-75
2024/03/14 02:03:17;;;;;;;;;;;10.60;23.50;;;;;;5054359;28;19909;-76
2024/03/14 02:05:46;;;;;;;;;;;10.60;23.70;;;;;;5053956;28;20437;-75
2024/03/14 02:08:12;;;;;;;;;;;10.50;20.90;;;;;;5054354;28;19951;-75
2024/03/14 02:10:49;;;;;;;;;;;10.50;22.80;;;;;;5050271;28;19959;-75
2024/03/14 02:13:19;;;;;;;;;;;10.40;22.70;;;;;;5054610;28;20326;-76
2024/03/14 02:15:45;;;;;;;;;;;10.40;23.40;;;;;;5040389;28;19920;-76
2024/03/14 02:18:11;;;;;;;;;;;10.40;23.10;;;;;;5053398;28;19917;-76
2024/03/14 02:20:39;;;;;;;;;;;10.30;22.60;;;;;;5054021;28;20406;-76
2024/03/14 02:23:05;;;;;;;;;;;10.20;23.30;;;;;;5053865;28;20438;-76
2024/03/14 02:28:34;;;;;;;;;;;10.10;26.50;;;;;;5047312;28;20406;-76
2024/03/14 02:30:59;;;;;;;;;;;10.10;24.70;;;;;;5036048;28;19913;-76
2024/03/14 02:33:44;;;;;;;;;;;10.00;26.20;;;;;;5053780;28;19931;-76
2024/03/14 02:36:20;;;;;;;;;;;9.90;26.70;;;;;;5016255;28;19913;-76
2024/03/14 02:38:45;;;;;;;;;;;9.90;30.20;;;;;;5039734;28;20444;-76
2024/03/14 02:41:25;;;;;;;;;;;9.90;31.20;;;;;;5035849;28;20003;-76
2024/03/14 02:43:52;;;;;;;;;;;9.90;42.70;;;;;;5053858;28;20356;-75
2024/03/14 02:46:18;;;;;;;;;;;9.80;42.60;;;;;;5035536;28;19908;-75
2024/03/14 02:48:44;;;;;;;;;;;9.70;39.40;;;;;;5053393;28;20273;-75
2024/03/14 02:51:10;;;;;;;;;;;9.60;42.50;;;;;;5053593;28;19936;-76
2024/03/14 02:53:37;;;;;;;;;;;9.70;46.60;;;;;;5053479;28;19913;-75
2024/03/14 02:56:09;;;;;;;;;;;9.70;39.40;;;;;;5052956;28;19916;-75
2024/03/14 02:58:37;;;;;;;;;;;9.60;42.80;;;;;;5051547;28;19957;-76
2024/03/14 03:01:04;;;;;;;;;;;9.60;42.50;;;;;;5054873;28;19913;-75
2024/03/14 03:03:31;;;;;;;;;;;9.60;42.50;;;;;;5048842;28;19963;-75
2024/03/14 03:05:57;;;;;;;;;;;9.60;39.30;;;;;;5049161;28;19913;-75
2024/03/14 03:08:23;;;;;;;;;;;9.60;39.30;;;;;;5048450;28;19920;-75
2024/03/14 03:10:48;;;;;;;;;;;9.60;42.70;;;;;;5042385;28;19956;-75
2024/03/14 03:13:14;;;;;;;;;;;9.50;42.50;;;;;;5053201;28;19916;-75
2024/03/14 03:15:40;;;;;;;;;;;9.50;42.40;;;;;;5053421;28;19909;-75
2024/03/14 03:18:07;;;;;;;;;;;9.50;42.40;;;;;;5057765;28;19917;-75
2024/03/14 03:20:33;;;;;;;;;;;9.40;42.30;;;;;;5057168;28;19975;-75
2024/03/14 03:23:17;;;;;;;;;;;9.40;39.10;;;;;;5056667;28;19944;-75
2024/03/14 03:25:43;;;;;;;;;;;9.40;42.40;;;;;;5055989;28;20427;-75
2024/03/14 03:28:31;;;;;;;;;;;9.40;39.10;;;;;;5057535;28;19912;-75
2024/03/14 03:30:57;;;;;;;;;;;9.40;42.60;;;;;;5056563;28;19913;-75
2024/03/14 03:33:23;;;;;;;;;;;9.30;42.30;;;;;;5056975;28;19915;-75
2024/03/14 03:35:49;;;;;;;;;;;9.30;39.00;;;;;;5055434;28;19920;-75
2024/03/14 03:38:19;;;;;;;;;;;9.30;42.30;;;;;;5042344;28;19921;-75
2024/03/14 03:40:45;;;;;;;;;;;9.40;42.30;;;;;;5056968;28;20011;-75
2024/03/14 03:43:20;;;;;;;;;;;9.40;42.40;;;;;;5042964;28;19956;-76
2024/03/14 03:45:49;;;;;;;;;;;9.40;39.10;;;;;;5057151;28;19909;-76
2024/03/14 03:48:31;;;;;;;;;;;9.40;42.40;;;;;;5056915;28;19916;-76
2024/03/14 03:51:08;;;;;;;;;;;9.30;42.30;;;;;;5056857;28;20007;-76
2024/03/14 03:53:37;;;;;;;;;;;9.30;42.30;;;;;;5056184;28;19994;-76
2024/03/14 03:56:03;;;;;;;;;;;9.30;42.30;;;;;;5056977;28;19950;-76
2024/03/14 03:58:32;;;;;;;;;;;9.20;39.00;;;;;;5057015;28;19912;-75
2024/03/14 04:01:13;;;;;;;;;;;9.20;42.40;;;;;;5056328;28;19928;-75
2024/03/14 04:03:40;;;;;;;;;;;9.20;39.00;;;;;;5041932;28;20361;-75
2024/03/14 04:06:15;;;;;;;;;;;9.10;42.10;;;;;;5053264;28;19951;-75
2024/03/14 04:08:41;;;;;;;;;;;9.10;42.00;;;;;;5050903;28;19913;-75
2024/03/14 04:11:10;;;;;;;;;;;9.10;42.00;;;;;;5047494;28;19909;-75
2024/03/14 04:13:38;;;;;;;;;;;9.10;42.00;;;;;;5049902;28;20011;-76
2024/03/14 04:16:04;;;;;;;;;;;9.10;42.10;;;;;;5056548;28;19912;-76
2024/03/14 04:18:37;;;;;;;;;;;9.00;41.90;;;;;;5056392;28;19921;-76
2024/03/14 04:21:05;;;;;;;;;;;9.00;42.00;;;;;;5038376;28;19920;-76
2024/03/14 04:23:31;;;;;;;;;;;9.00;42.20;;;;;;5056332;28;19979;-76
2024/03/14 04:26:15;;;;;;;;;;;9.00;42.00;;;;;;5056299;28;19909;-76
2024/03/14 04:28:44;;;;;;;;;;;8.90;42.10;;;;;;5054562;28;19959;-76
2024/03/14 04:31:26;;;;;;;;;;;8.90;41.90;;;;;;5056235;28;19913;-76
2024/03/14 04:33:55;;;;;;;;;;;8.90;41.90;;;;;;5043493;28;19917;-75
2024/03/14 04:36:21;;;;;;;;;;;8.80;41.80;;;;;;5056349;28;19944;-76
2024/03/14 04:38:55;;;;;;;;;;;8.80;41.80;;;;;;5055797;28;19915;-76
2024/03/14 04:41:21;;;;;;;;;;;8.80;41.80;;;;;;5055969;28;19923;-76
2024/03/14 04:43:56;;;;;;;;;;;8.70;38.60;;;;;;5056352;28;19909;-75
2024/03/14 04:46:22;;;;;;;;;;;8.70;41.80;;;;;;5055453;28;19909;-75
2024/03/14 04:48:47;;;;;;;;;;;8.60;41.70;;;;;;5051180;28;19966;-75
2024/03/14 04:51:13;;;;;;;;;;;9.70;42.60;;;;;;5055983;28;19909;-75
2024/03/14 04:53:38;;;;;;;;;;;8.50;41.60;;;;;;5044718;28;19913;-75
2024/03/14 04:56:08;;;;;;;;;;;8.60;41.70;;;;;;5055993;28;19962;-75
2024/03/14 04:59:12;;;;;;;;;;;8.50;41.80;;;;;;5055904;28;19996;-76
2024/03/14 05:02:02;;;;;;;;;;;8.50;38.40;;;;;;5048382;28;20376;-76
2024/03/14 05:04:37;;;;;;;;;;;8.50;41.70;;;;;;5054747;28;19913;-76
2024/03/14 05:07:03;;;;;;;;;;;8.40;38.30;;;;;;5054334;28;19908;-76
2024/03/14 05:09:32;;;;;;;;;;;8.30;41.70;;;;;;5055555;28;19931;-77
2024/03/14 05:12:19;;;;;;;;;;;8.30;41.40;;;;;;5052126;28;20387;-75
2024/03/14 05:14:46;;;;;;;;;;;8.30;41.40;;;;;;5043836;28;19913;-75
2024/03/14 05:17:20;;;;;;;;;;;8.30;41.60;;;;;;5055623;28;19935;-76
2024/03/14 05:19:55;;;;;;;;;;;8.20;38.10;;;;;;5042597;28;19981;-75
2024/03/14 05:22:22;;;;;;;;;;;8.20;41.60;;;;;;5052297;28;19917;-75
2024/03/14 05:24:51;;;;;;;;;;;8.30;44.40;;;;;;5055057;28;19913;-75
2024/03/14 05:27:20;;;;;;;;;;;8.20;49.10;;;;;;5055030;28;19909;-75
2024/03/14 05:29:46;;;;;;;;;;;8.20;52.10;;;;;;5055455;28;19939;-76
2024/03/14 05:32:21;;;;;;;;;;;8.20;50.00;;;;;;5055112;28;19952;-75
2024/03/14 05:34:50;;;;;;;;;;;8.20;49.50;;;;;;5054986;28;19913;-75
2024/03/14 05:37:16;;;;;;;;;;;8.10;46.40;;;;;;5055001;28;19975;-75
2024/03/14 05:39:42;;;;;;;;;;;8.10;44.30;;;;;;5054134;28;19917;-75
2024/03/14 05:42:12;;;;;;;;;;;8.10;42.20;;;;;;5054742;28;19940;-75
2024/03/14 05:44:39;;;;;;;;;;;8.10;43.90;;;;;;5049246;28;19909;-75
2024/03/14 05:47:10;;;;;;;;;;;8.10;45.80;;;;;;5054778;28;19924;-75
2024/03/14 05:49:36;;;;;;;;;;;8.10;46.20;;;;;;5052647;28;19920;-75
2024/03/14 05:52:10;;;;;;;;;;;8.10;50.60;;;;;;5041407;28;19920;-75
2024/03/14 05:54:44;;;;;;;;;;;8.10;47.70;;;;;;5034400;28;19927;-74
2024/03/14 05:57:10;;;;;;;;;;;8.10;52.00;;;;;;5036913;28;19999;-75
2024/03/14 05:59:51;;;;;;;;;;;8.10;45.80;;;;;;5052206;28;19952;-76
2024/03/14 06:02:32;;;;;;;;;;;8.10;44.30;;;;;;5056554;28;19913;-75
2024/03/14 06:04:57;;;;;;;;;;;8.10;46.70;;;;;;5054185;28;19955;-76
2024/03/14 06:07:25;;;;;;;;;;;8.10;42.30;;;;;;5053299;28;19956;-76
2024/03/14 06:09:51;;;;;;;;;;;8.10;44.20;;;;;;5054267;28;19944;-76
2024/03/14 06:12:17;;;;;;;;;;;8.10;47.20;;;;;;5054428;28;19951;-76
2024/03/14 06:14:42;;;;;;;;;;;8.20;46.80;;;;;;5054675;28;19909;-78
2024/03/14 06:17:32;;;;;;;;;;;8.20;48.30;;;;;;5054535;28;19913;-78
2024/03/14 06:20:26;;;;;;;;;;;8.30;50.40;;;;;;5054021;28;20004;-79
2024/03/14 06:23:16;;;;;;;;;;;8.30;51.40;;;;;;5051476;28;20005;-77
2024/03/14 06:25:42;;;;;;;;;;;8.40;55.40;;;;;;5054179;28;19917;-78
2024/03/14 06:28:20;;;;;;;;;;;8.50;53.70;;;;;;5054013;28;19980;-77
2024/03/14 06:31:07;;;;;;;;;;;8.50;60.90;;;;;;5034492;28;19959;-77
2024/03/14 06:33:44;;;;;;;;;;;8.60;55.40;;;;;;5046480;28;19966;-79
2024/03/14 06:36:31;;;;;;;;;;;8.70;55.70;;;;;;5053409;28;20003;-77
2024/03/14 06:39:08;;;;;;;;;;;8.80;52.30;;;;;;5040689;28;19909;-78
2024/03/14 06:41:34;;;;;;;;;;;8.80;55.40;;;;;;5053866;28;19925;-76
2024/03/14 06:44:08;;;;;;;;;;;8.80;56.00;;;;;;5039374;28;19913;-76
2024/03/14 06:46:33;;;;;;;;;;;8.90;51.10;;;;;;5036900;28;20336;-76
2024/03/14 06:48:59;;;;;;;;;;;9.00;51.40;;;;;;5053799;28;19913;-76
2024/03/14 06:51:26;;;;;;;;;;;9.10;50.40;;;;;;5054736;28;20291;-77
2024/03/14 06:54:04;;;;;;;;;;;9.10;53.40;;;;;;5053742;28;19916;-80
2024/03/14 06:56:29;;;;;;;;;;;9.20;50.70;;;;;;5053603;28;19908;-80
2024/03/14 06:58:55;;;;;;;;;;;9.20;50.70;;;;;;5037067;28;19920;-75
2024/03/14 07:01:21;;;;;;;;;;;9.30;52.30;;;;;;5060921;28;20007;-78
2024/03/14 07:03:46;;;;;;;;;;;9.40;50.10;;;;;;5052873;28;19913;-78
2024/03/14 07:06:23;;;;;;;;;;;9.50;46.90;;;;;;5050308;28;19920;-78
2024/03/14 07:08:48;;;;;;;;;;;9.60;39.50;;;;;;5053462;28;20352;-78
2024/03/14 07:11:26;;;;;;;;;;;9.60;42.90;;;;;;5053397;28;19996;-78
2024/03/14 07:13:56;;;;;;;;;;;9.60;42.60;;;;;;5041643;28;19917;-80
2024/03/14 07:16:26;;;;;;;;;;;9.60;47.00;;;;;;5046407;28;19935;-79
2024/03/14 07:19:01;;;;;;;;;;;9.70;47.50;;;;;;5047512;28;19967;-77
2024/03/14 07:21:28;;;;;;;;;;;9.80;39.50;;;;;;5047737;28;19913;-78
2024/03/14 07:23:53;;;;;;;;;;;9.90;43.10;;;;;;5052348;28;20329;-78
2024/03/14 07:26:32;;;;;;;;;;;10.00;42.10;;;;;;5053366;28;19948;-78
2024/03/14 07:29:08;;;;;;;;;;;10.10;38.80;;;;;;5053592;28;19909;-79
2024/03/14 07:31:34;;;;;;;;;;;10.10;42.10;;;;;;5051202;28;19936;-76
2024/03/14 07:34:10;;;;;;;;;;;10.20;42.30;;;;;;5026139;28;19909;-77
2024/03/14 07:36:41;;;;;;;;;;;10.30;42.10;;;;;;5053529;28;19913;-77
2024/03/14 07:39:09;;;;;;;;;;;10.40;42.30;;;;;;5051512;28;20402;-76
2024/03/14 07:41:36;;;;;;;;;;;10.50;42.60;;;;;;5030973;28;20378;-75
2024/03/14 07:44:08;;;;;;;;;;;10.60;42.60;;;;;;5048808;28;21244;-75
2024/03/14 07:46:37;;;;;;;;;;;10.70;42.50;;;;;;5050019;28;19920;-75
2024/03/14 07:49:08;;;;;;;;;;;10.80;42.80;;;;;;5052564;28;19925;-75
2024/03/14 07:51:34;;;;;;;;;;;10.90;42.70;;;;;;5052692;28;19970;-76
2024/03/14 07:53:59;;;;;;;;;;;11.00;42.80;;;;;;5050960;28;19921;-75
2024/03/14 07:56:32;;;;;;;;;;;11.10;43.10;;;;;;5034341;28;20391;-76
2024/03/14 07:59:05;;;;;;;;;;;11.10;42.90;;;;;;5049089;28;19995;-75
2024/03/14 08:01:33;;;;;;;;;;;11.20;43.00;;;;;;5048940;28;19936;-77
2024/03/14 08:04:00;;;;;;;;;;;11.40;43.30;;;;;;5059692;28;19909;-78
2024/03/14 08:06:45;;;;;;;;;;;11.60;43.20;;;;;;5052044;28;20284;-77
2024/03/14 08:09:12;;;;;;;;;;;11.50;35.50;;;;;;5053070;28;19916;-78
2024/03/14 08:11:44;;;;;;;;;;;11.60;26.30;;;;;;5057808;28;20284;-77
2024/03/14 08:14:15;;;;;;;;;;;11.80;20.00;;;;;;5053958;28;19919;-77
2024/03/14 08:16:42;;;;;;;;;;;11.90;22.90;;;;;;5048292;28;20289;-77
2024/03/14 08:19:09;;;;;;;;;;;12.10;17.00;;;;;;5054081;28;19924;-77
2024/03/14 08:21:38;;;;;;;;;;;12.30;13.40;;;;;;5055983;28;20257;-77
2024/03/14 08:24:09;;;;;;;;;;;12.40;5.40;;;;;;5057641;28;19909;-77
2024/03/14 08:26:46;;;;;;;;;;;12.40;1.00;;;;;;5035827;28;19921;-77
2024/03/14 08:29:14;;;;;;;;;;;12.40;1.00;;;;;;5054584;28;19913;-77
2024/03/14 08:31:41;;;;;;;;;;;12.50;1.00;;;;;;5054167;28;19913;-75
2024/03/14 08:34:08;;;;;;;;;;;12.60;1.00;;;;;;5054635;28;20320;-76
2024/03/14 08:36:38;;;;;;;;;;;12.70;1.00;;;;;;5045627;28;19913;-76
2024/03/14 08:39:06;;;;;;;;;;;12.80;1.00;;;;;;5060733;28;20360;-76
2024/03/14 08:41:50;;;;;;;;;;;12.90;1.00;;;;;;5032616;28;19921;-76
2024/03/14 08:44:28;;;;;;;;;;;13.00;1.00;;;;;;5055243;28;20394;-76
2024/03/14 08:46:56;;;;;;;;;;;13.00;1.00;;;;;;5037625;28;19966;-75
2024/03/14 08:49:22;;;;;;;;;;;13.10;1.00;;;;;;5037514;28;20004;-75
2024/03/14 08:51:49;;;;;;;;;;;13.10;1.00;;;;;;5050452;28;20003;-76
2024/03/14 08:56:52;;;;;;;;;;;13.10;1.00;;;;;;5042854;28;19913;-76
2024/03/14 08:59:20;;;;;;;;;;;13.20;1.00;;;;;;5046083;28;19924;-76
2024/03/14 09:01:50;;;;;;;;;;;13.20;1.00;;;;;;5052382;28;19964;-77
2024/03/14 09:04:26;;;;;;;;;;;13.30;1.00;;;;;;5049221;28;20404;-77
2024/03/14 09:06:53;;;;;;;;;;;13.40;1.00;;;;;;5043534;28;19913;-77
2024/03/14 09:09:27;;;;;;;;;;;13.40;1.00;;;;;;5050118;28;19978;-77
2024/03/14 09:12:26;;;;;;;;;;;13.30;1.00;;;;;;5052446;28;19919;-78
2024/03/14 09:14:54;;;;;;;;;;;13.30;1.00;;;;;;5044659;28;19940;-78
2024/03/14 09:17:45;;;;;;;;;;;13.40;1.00;;;;;;5052134;28;19920;-77
2024/03/14 09:20:38;;;;;;;;;;;13.80;1.00;;;;;;5049888;28;19920;-77
2024/03/14 09:23:15;;;;;;;;;;;13.80;1.00;;;;;;5044626;28;20007;-77
2024/03/14 09:25:57;;;;;;;;;;;13.90;1.00;;;;;;5053888;28;19912;-77
2024/03/14 09:28:32;;;;;;;;;;;14.00;1.00;;;;;;5054579;28;19908;-77
2024/03/14 09:31:02;;;;;;;;;;;14.20;1.00;;;;;;5046614;28;19913;-77
2024/03/14 09:33:38;;;;;;;;;;;14.40;1.00;;;;;;5047616;28;19920;-77
2024/03/14 09:36:13;;;;;;;;;;;14.50;1.00;;;;;;5053737;28;19959;-78
2024/03/14 09:38:39;;;;;;;;;;;14.70;1.00;;;;;;5028211;28;20320;-77
2024/03/14 09:41:14;;;;;;;;;;;14.70;1.00;;;;;;5054318;28;19916;-78
2024/03/14 09:44:03;;;;;;;;;;;14.90;1.00;;;;;;5041538;28;19912;-78
2024/03/14 09:46:56;;;;;;;;;;;15.10;1.00;;;;;;5049750;28;19917;-77
2024/03/14 09:49:51;;;;;;;;;;;15.10;1.00;;;;;;5038437;28;19917;-77
2024/03/14 09:52:26;;;;;;;;;;;15.00;1.00;;;;;;5048780;28;20342;-77
2024/03/14 09:54:52;;;;;;;;;;;15.00;1.00;;;;;;5017175;28;19910;-78
2024/03/14 09:57:32;;;;;;;;;;;15.00;1.00;;;;;;5040342;28;20292;-77
2024/03/14 10:00:20;;;;;;;;;;;15.20;1.00;;;;;;5040023;28;19921;-77
2024/03/14 10:02:51;;;;;;;;;;;15.30;1.00;;;;;;5035021;28;19928;-76
2024/03/14 10:05:16;;;;;;;;;;;15.30;1.00;;;;;;5035950;28;19916;-76
2024/03/14 10:07:50;;;;;;;;;;;15.30;1.00;;;;;;5034688;28;19913;-76
2024/03/14 10:10:16;;;;;;;;;;;15.30;1.00;;;;;;5031003;28;20292;-75
2024/03/14 10:12:51;;;;;;;;;;;15.40;1.00;;;;;;5035011;28;19909;-76
2024/03/14 10:15:20;;;;;;;;;;;15.50;1.00;;;;;;5047933;28;19913;-73
2024/03/14 10:17:51;;;;;;;;;;;15.50;1.00;;;;;;5035179;28;20002;-75
2024/03/14 10:20:20;;;;;;;;;;;15.40;1.00;;;;;;5041316;28;19917;-76
2024/03/14 10:23:02;;;;;;;;;;;15.50;1.00;;;;;;5047111;28;19913;-76
2024/03/14 10:32:03;;;;;;;;;;;15.50;1.00;;;;;;5034909;28;19968;-84
2024/03/14 10:34:29;;;;;;;;;;;15.50;1.00;;;;;;5037517;28;20564;-79
2024/03/14 10:36:58;;;;;;;;;;;15.40;1.00;;;;;;5036853;28;19909;-76
2024/03/14 10:39:36;;;;;;;;;;;15.40;1.00;;;;;;5051590;28;19920;-77
2024/03/14 10:42:04;;;;;;;;;;;15.40;1.00;;;;;;5035424;28;19971;-76
2024/03/14 10:44:32;;;;;;;;;;;15.40;1.00;;;;;;5043788;28;19913;-76
2024/03/14 10:46:58;;;;;;;;;;;15.40;1.00;;;;;;5042546;28;19917;-78
2024/03/14 10:52:27;;;;;;;;;;;15.80;1.00;;;;;;5051608;28;19924;-79
2024/03/14 10:54:56;;;;;;;;;;;16.20;1.00;;;;;;5051561;28;19909;-79
2024/03/14 10:57:24;;;;;;;;;;;16.40;1.00;;;;;;5046879;28;19913;-79
2024/03/14 10:59:57;;;;;;;;;;;16.20;1.00;;;;;;5049198;28;19920;-79
2024/03/14 11:02:27;;;;;;;;;;;16.10;1.00;;;;;;5022909;28;20410;-79
2024/03/14 11:05:17;;;;;;;;;;;16.00;1.00;;;;;;5046797;28;20258;-80
2024/03/14 11:07:54;;;;;;;;;;;16.20;1.00;;;;;;5048726;28;19964;-80
2024/03/14 11:10:31;;;;;;;;;;;16.10;1.00;;;;;;5038035;28;19910;-80
2024/03/14 11:13:05;;;;;;;;;;;16.60;1.00;;;;;;5029043;28;19979;-81
2024/03/14 11:15:46;;;;;;;;;;;16.70;1.00;;;;;;5053218;28;19944;-80
2024/03/14 11:18:14;;;;;;;;;;;16.60;1.00;;;;;;5048095;28;19983;-80
2024/03/14 11:20:41;;;;;;;;;;;16.80;1.00;;;;;;5041112;28;19924;-80
2024/03/14 11:23:12;;;;;;;;;;;16.60;1.00;;;;;;5028192;28;19923;-80
2024/03/14 11:25:40;;;;;;;;;;;16.70;1.00;;;;;;5028915;28;19920;-80
2024/03/14 11:28:20;;;;;;;;;;;16.80;1.00;;;;;;5052855;28;19992;-80
2024/03/14 11:30:56;;;;;;;;;;;17.40;1.00;;;;;;5042871;28;19917;-79
2024/03/14 11:33:45;;;;;;;;;;;17.80;1.00;;;;;;5053050;28;19912;-79
2024/03/14 11:39:16;;;;;;;;;;;18.00;1.00;;;;;;5048759;28;20292;-80
2024/03/14 11:42:16;;;;;;;;;;;18.20;1.00;;;;;;5049732;28;19916;-80
2024/03/14 11:44:51;;;;;;;;;;;18.30;1.00;;;;;;4978876;28;20019;-78
2024/03/14 11:50:22;;;;;;;;;;;18.60;1.00;;;;;;4980767;28;19992;-80
2024/03/14 11:53:20;;;;;;;;;;;18.60;1.00;;;;;;4957905;28;20017;-80
2024/03/14 11:55:46;;;;;;;;;;;18.20;1.00;;;;;;4973289;28;19918;-80
2024/03/14 11:58:15;;;;;;;;;;;18.20;1.00;;;;;;4974817;28;19953;-80
2024/03/14 12:00:41;;;;;;;;;;;17.90;1.00;;;;;;4972408;28;20421;-80
2024/03/14 12:03:07;;;;;;;;;;;17.70;1.00;;;;;;4971021;28;19919;-77
2024/03/14 12:05:38;;;;;;;;;;;18.00;1.00;;;;;;4973868;28;19922;-77
2024/03/14 12:08:04;;;;;;;;;;;18.10;1.00;;;;;;4973378;28;19914;-82
2024/03/14 12:13:32;;;;;;;;;;;18.50;1.00;;;;;;4969488;28;20356;-78
2024/03/14 12:16:20;;;;;;;;;;;18.60;1.00;;;;;;4975897;28;19910;-81
2024/03/14 12:19:09;;;;;;;;;;;18.80;1.00;;;;;;4976236;28;19918;-80
2024/03/14 12:22:02;;;;;;;;;;;19.00;1.00;;;;;;5055007;28;20360;-80
2024/03/14 12:24:38;;;;;;;;;;;19.20;1.00;;;;;;5052984;28;19909;-80
2024/03/14 12:30:09;;;;;;;;;;;19.20;1.00;;;;;;5038398;28;20023;-80
2024/03/14 12:32:56;;;;;;;;;;;19.40;1.00;;;;;;5048122;28;19921;-80
2024/03/14 12:35:23;;;;;;;;;;;19.30;1.00;;;;;;5038901;28;19920;-75
2024/03/14 12:37:49;;;;;;;;;;;19.30;1.00;;;;;;5044231;28;19932;-75
2024/03/14 12:40:22;;;;;;;;;;;19.30;1.00;;;;;;5038941;28;20275;-75
2024/03/14 12:42:53;;;;;;;;;;;19.20;1.00;;;;;;5043224;28;19966;-75
2024/03/14 12:45:20;;;;;;;;;;;19.20;1.00;;;;;;5051193;28;19963;-74
2024/03/14 12:47:52;;;;;;;;;;;19.20;1.00;;;;;;5029047;28;20019;-75
2024/03/14 12:50:24;;;;;;;;;;;19.20;1.00;;;;;;5042646;28;19916;-77
2024/03/14 12:52:59;;;;;;;;;;;19.40;1.00;;;;;;5036859;28;20357;-75
2024/03/14 12:55:38;;;;;;;;;;;19.40;1.00;;;;;;5055792;28;19913;-75
2024/03/14 12:58:08;;;;;;;;;;;19.40;1.00;;;;;;5042103;28;19910;-76
2024/03/14 13:00:45;;;;;;;;;;;19.50;1.00;;;;;;5040136;28;19920;-75
2024/03/14 13:03:22;;;;;;;;;;;19.40;1.00;;;;;;5035922;28;19917;-76
2024/03/14 13:05:57;;;;;;;;;;;19.20;1.00;;;;;;5037800;28;19916;-74
2024/03/14 13:08:24;;;;;;;;;;;19.50;1.00;;;;;;5040844;28;19909;-75
2024/03/14 13:11:18;;;;;;;;;;;19.40;1.00;;;;;;5055678;28;20383;-75
2024/03/14 13:13:44;;;;;;;;;;;19.30;1.00;;;;;;5035959;28;19952;-75
2024/03/14 13:16:17;;;;;;;;;;;19.00;1.00;;;;;;5045453;28;20335;-75
2024/03/14 13:18:46;;;;;;;;;;;19.00;1.00;;;;;;5046704;28;19917;-75
2024/03/14 13:21:11;;;;;;;;;;;19.30;1.00;;;;;;5053639;28;20279;-75
2024/03/14 13:23:45;;;;;;;;;;;19.40;1.00;;;;;;5044021;28;19909;-75
2024/03/14 13:26:17;;;;;;;;;;;19.50;1.00;;;;;;5040545;28;19912;-75
2024/03/14 13:28:44;;;;;;;;;;;19.90;1.00;;;;;;5042669;28;19952;-76
2024/03/14 13:31:16;;;;;;;;;;;20.20;1.00;;;;;;5036066;28;20337;-75
2024/03/14 13:33:44;;;;;;;;;;;20.20;1.00;;;;;;5035471;28;19909;-76
2024/03/14 13:36:16;;;;;;;;;;;20.30;1.00;;;;;;5041306;28;20012;-75
2024/03/14 13:38:44;;;;;;;;;;;20.20;1.00;;;;;;5021645;28;20579;-75
2024/03/14 13:41:14;;;;;;;;;;;20.10;1.00;;;;;;5043989;28;20016;-75
2024/03/14 13:43:51;;;;;;;;;;;20.20;1.00;;;;;;5045223;28;19948;-76
2024/03/14 13:46:20;;;;;;;;;;;20.40;1.00;;;;;;5022253;28;19909;-75
2024/03/14 13:49:05;;;;;;;;;;;20.40;1.00;;;;;;5045344;28;20320;-75
2024/03/14 13:51:32;;;;;;;;;;;20.50;1.00;;;;;;5043686;28;19920;-76
2024/03/14 13:54:02;;;;;;;;;;;20.30;1.00;;;;;;5034104;28;19914;-76
2024/03/14 13:56:47;;;;;;;;;;;20.20;1.00;;;;;;5037049;28;19909;-76
2024/03/14 13:59:17;;;;;;;;;;;19.90;1.00;;;;;;5042766;28;19917;-76
2024/03/14 14:01:51;;;;;;;;;;;19.90;1.00;;;;;;5051742;28;20352;-75
2024/03/14 14:04:32;;;;;;;;;;;20.00;1.00;;;;;;5042559;28;19921;-76
2024/03/14 14:07:03;;;;;;;;;;;19.70;1.00;;;;;;5046030;28;20331;-76
2024/03/14 14:09:38;;;;;;;;;;;19.70;1.00;;;;;;5037303;28;20373;-77
2024/03/14 14:12:14;;;;;;;;;;;19.10;1.00;;;;;;5035729;28;20213;-76
2024/03/14 14:15:02;;;;;;;;;;;19.20;1.00;;;;;;5047440;28;19909;-76
2024/03/14 14:17:44;;;;;;;;;;;19.00;1.00;;;;;;5049434;28;19913;-75
2024/03/14 14:20:23;;;;;;;;;;;18.90;1.00;;;;;;5037406;28;19918;-76
2024/03/14 14:22:50;;;;;;;;;;;18.70;1.00;;;;;;5036633;28;19917;-74
2024/03/14 14:25:21;;;;;;;;;;;18.70;1.00;;;;;;5046325;28;19960;-75
2024/03/14 14:27:50;;;;;;;;;;;18.90;1.00;;;;;;5035207;28;20004;-75
2024/03/14 14:30:22;;;;;;;;;;;19.10;1.00;;;;;;5046984;28;20000;-74
2024/03/14 14:32:54;;;;;;;;;;;18.90;1.00;;;;;;5034194;28;19915;-75
2024/03/14 14:35:38;;;;;;;;;;;19.20;1.00;;;;;;5016884;28;19980;-76
2024/03/14 14:38:33;;;;;;;;;;;19.40;1.00;;;;;;5045191;28;19917;-76
2024/03/14 14:41:20;;;;;;;;;;;19.40;1.00;;;;;;5034106;28;20348;-76
2024/03/14 14:43:58;;;;;;;;;;;19.50;1.00;;;;;;5045151;28;19917;-76
2024/03/14 14:46:38;;;;;;;;;;;19.30;1.00;;;;;;5047436;28;19914;-75
2024/03/14 14:49:20;;;;;;;;;;;19.30;1.00;;;;;;5042797;28;19936;-76
2024/03/14 14:51:46;;;;;;;;;;;19.30;1.00;;;;;;5038211;28;20015;-76
2024/03/14 14:54:13;;;;;;;;;;;19.30;1.00;;;;;;5033296;28;19944;-76
2024/03/14 14:56:43;;;;;;;;;;;19.10;1.00;;;;;;5028666;28;19909;-76
2024/03/14 14:59:09;;;;;;;;;;;19.00;1.00;;;;;;5034341;28;19910;-76
2024/03/14 15:01:38;;;;;;;;;;;19.10;1.00;;;;;;5035379;28;19991;-75
2024/03/14 15:04:06;;;;;;;;;;;19.40;1.00;;;;;;5035793;28;19913;-77
2024/03/14 15:06:38;;;;;;;;;;;19.50;1.00;;;;;;5038367;28;19909;-79
2024/03/14 15:09:04;;;;;;;;;;;19.60;1.00;;;;;;5045878;28;19913;-75
2024/03/14 15:11:30;;;;;;;;;;;19.60;1.00;;;;;;5034206;28;19963;-74
2024/03/14 15:13:56;;;;;;;;;;;19.60;1.00;;;;;;5038005;28;19918;-76
2024/03/14 15:16:26;;;;;;;;;;;19.10;1.00;;;;;;5049317;28;19913;-76
2024/03/14 15:18:52;;;;;;;;;;;19.10;1.00;;;;;;5042144;28;19917;-75
2024/03/14 15:21:20;;;;;;;;;;;19.10;1.00;;;;;;5056085;28;19920;-75